createdAt,value
2022-08-26T00:00:01.677Z,100814.16
2022-08-26T00:02:32.438Z,100809.00
2022-08-26T00:05:03.552Z,100809.50
2022-08-26T00:07:34.176Z,100811.34
2022-08-26T00:10:09.215Z,100810.59
2022-08-26T00:12:40.544Z,100806.25
2022-08-26T00:15:15.477Z,100802.00
2022-08-26T00:17:46.386Z,100797.63
2022-08-26T00:20:33.503Z,100799.53
2022-08-26T00:23:05.360Z,100798.47
2022-08-26T00:25:39.115Z,100800.03
2022-08-26T00:28:13.322Z,100794.91
2022-08-26T00:30:44.060Z,100788.72
2022-08-26T00:33:16.723Z,100797.91
2022-08-26T00:35:49.269Z,100796.22
2022-08-26T00:38:22.853Z,100791.94
2022-08-26T00:40:59.408Z,100787.50
2022-08-26T00:43:32.759Z,100781.78
2022-08-26T00:46:19.386Z,100782.66
2022-08-26T00:48:53.166Z,100783.19
2022-08-26T00:51:29.817Z,100785.19
2022-08-26T00:54:04.881Z,100781.94
2022-08-26T00:56:44.413Z,100781.53
2022-08-26T00:59:19.662Z,100780.78
2022-08-26T01:01:49.798Z,100785.63
2022-08-26T01:04:23.764Z,100780.38
2022-08-26T01:06:57.683Z,100784.66
2022-08-26T01:09:28.229Z,100779.19
2022-08-26T01:12:04.784Z,100777.50
2022-08-26T01:14:40.223Z,100775.84
2022-08-26T01:17:11.885Z,100776.34
2022-08-26T01:19:47.224Z,100782.03
2022-08-26T01:22:20.439Z,100789.06
2022-08-26T01:24:53.986Z,100783.66
2022-08-26T01:27:24.836Z,100784.97
2022-08-26T01:29:55.190Z,100775.22
2022-08-26T01:32:26.229Z,100783.50
2022-08-26T01:34:57.283Z,100786.22
2022-08-26T01:37:35.293Z,100778.63
2022-08-26T01:40:16.928Z,100777.25
2022-08-26T01:42:49.186Z,100773.88
2022-08-26T01:45:22.471Z,100771.66
2022-08-26T01:47:57.147Z,100774.56
2022-08-26T01:50:30.734Z,100774.28
2022-08-26T01:53:05.918Z,100771.84
2022-08-26T01:55:41.693Z,100777.75
2022-08-26T01:58:17.911Z,100766.19
2022-08-26T02:00:49.311Z,100770.47
2022-08-26T02:03:22.904Z,100767.47
2022-08-26T02:05:56.199Z,100768.81
2022-08-26T02:08:29.987Z,100769.78
2022-08-26T02:11:03.895Z,100766.75
2022-08-26T02:13:35.916Z,100766.75
2022-08-26T02:16:08.414Z,100771.19
2022-08-26T02:18:41.363Z,100766.53
2022-08-26T02:21:14.549Z,100762.19
2022-08-26T02:23:44.786Z,100762.38
2022-08-26T02:26:21.123Z,100762.38
2022-08-26T02:28:56.053Z,100766.06
2022-08-26T02:31:27.254Z,100762.03
2022-08-26T02:33:57.250Z,100763.94
2022-08-26T02:36:28.958Z,100764.44
2022-08-26T02:38:59.290Z,100760.84
2022-08-26T02:41:32.040Z,100764.91
2022-08-26T02:44:02.776Z,100766.06
2022-08-26T02:46:33.042Z,100764.59
2022-08-26T02:49:03.544Z,100753.47
2022-08-26T02:51:33.977Z,100756.50
2022-08-26T02:54:03.883Z,100747.50
2022-08-26T02:56:38.082Z,100741.03
2022-08-26T02:59:08.509Z,100745.69
2022-08-26T03:01:39.188Z,100740.22
2022-08-26T03:04:13.215Z,100742.09
2022-08-26T03:06:47.105Z,100744.31
2022-08-26T03:09:23.364Z,100743.25
2022-08-26T03:11:56.170Z,100747.06
2022-08-26T03:14:26.526Z,100733.84
2022-08-26T03:16:57.202Z,100735.47
2022-08-26T03:19:29.310Z,100738.41
2022-08-26T03:22:02.223Z,100728.94
2022-08-26T03:24:32.595Z,100733.06
2022-08-26T03:27:07.379Z,100735.53
2022-08-26T03:29:50.508Z,100731.28
2022-08-26T03:32:20.762Z,100729.34
2022-08-26T03:34:50.867Z,100732.72
2022-08-26T03:37:21.701Z,100733.94
2022-08-26T03:39:52.103Z,100729.03
2022-08-26T03:42:24.597Z,100730.59
2022-08-26T03:44:54.699Z,100734.94
2022-08-26T03:47:24.855Z,100726.16
2022-08-26T03:49:54.978Z,100726.03
2022-08-26T03:52:25.181Z,100724.06
2022-08-26T03:54:55.426Z,100722.19
2022-08-26T03:57:28.515Z,100721.34
2022-08-26T03:59:58.292Z,100727.91
2022-08-26T04:02:28.857Z,100723.50
2022-08-26T04:04:58.675Z,100721.63
2022-08-26T04:07:28.565Z,100727.59
2022-08-26T04:10:02.351Z,100723.19
2022-08-26T04:12:34.880Z,100729.16
2022-08-26T04:15:06.096Z,100723.97
2022-08-26T04:17:36.368Z,100717.66
2022-08-26T04:20:08.494Z,100730.47
2022-08-26T04:22:38.961Z,100726.72
2022-08-26T04:25:12.017Z,100722.31
2022-08-26T04:27:44.423Z,100724.78
2022-08-26T04:30:15.859Z,100722.31
2022-08-26T04:32:47.067Z,100722.25
2022-08-26T04:35:17.805Z,100718.97
2022-08-26T04:37:48.963Z,100719.31
2022-08-26T04:40:19.254Z,100724.31
2022-08-26T04:42:51.753Z,100724.63
2022-08-26T04:45:22.861Z,100709.50
2022-08-26T04:47:56.478Z,100714.50
2022-08-26T04:50:28.491Z,100711.47
2022-08-26T04:52:59.222Z,100709.28
2022-08-26T04:55:39.728Z,100709.28
2022-08-26T04:58:12.511Z,100708.28
2022-08-26T05:00:43.224Z,100708.44
2022-08-26T05:03:13.184Z,100711.06
2022-08-26T05:05:44.127Z,100711.63
2022-08-26T05:08:15.687Z,100717.59
2022-08-26T05:10:48.321Z,100721.13
2022-08-26T05:13:23.145Z,100731.56
2022-08-26T05:15:54.361Z,100732.16
2022-08-26T05:18:30.037Z,100728.78
2022-08-26T05:21:00.151Z,100726.06
2022-08-26T05:23:32.048Z,100735.72
2022-08-26T05:26:05.052Z,100738.34
2022-08-26T05:28:38.200Z,100734.63
2022-08-26T05:31:15.469Z,100743.34
2022-08-26T05:33:48.411Z,100745.75
2022-08-26T05:36:20.590Z,100738.03
2022-08-26T05:38:53.002Z,100740.91
2022-08-26T05:41:27.651Z,100740.56
2022-08-26T05:44:10.357Z,100739.28
2022-08-26T05:46:42.592Z,100745.56
2022-08-26T05:49:16.136Z,100745.63
2022-08-26T05:51:47.764Z,100735.50
2022-08-26T05:54:21.894Z,100739.56
2022-08-26T05:56:53.453Z,100740.56
2022-08-26T05:59:27.045Z,100740.50
2022-08-26T06:01:57.371Z,100733.13
2022-08-26T06:04:29.205Z,100730.28
2022-08-26T06:07:01.012Z,100733.69
2022-08-26T06:09:31.787Z,100736.63
2022-08-26T06:12:02.836Z,100740.13
2022-08-26T06:14:36.118Z,100737.13
2022-08-26T06:17:07.074Z,100735.00
2022-08-26T06:19:41.456Z,100739.16
2022-08-26T06:25:28.736Z,100734.28
2022-08-26T06:27:59.147Z,100728.03
2022-08-26T06:30:29.625Z,100728.94
2022-08-26T06:33:01.760Z,100729.69
2022-08-26T06:35:32.019Z,100724.41
2022-08-26T06:38:03.095Z,100723.59
2022-08-26T06:40:36.588Z,100724.56
2022-08-26T06:43:06.751Z,100730.19
2022-08-26T06:45:38.428Z,100728.50
2022-08-26T06:48:08.468Z,100726.38
2022-08-26T06:50:39.929Z,100725.88
2022-08-26T06:53:10.720Z,100731.44
2022-08-26T06:55:47.253Z,100728.81
2022-08-26T06:58:21.934Z,100730.19
2022-08-26T07:00:52.054Z,100732.97
2022-08-26T07:03:22.363Z,100725.16
2022-08-26T07:05:52.651Z,100723.91
2022-08-26T07:08:25.047Z,100723.97
2022-08-26T07:10:58.110Z,100724.28
2022-08-26T07:13:30.751Z,100727.38
2022-08-26T07:16:03.030Z,100725.53
2022-08-26T07:18:34.110Z,100728.00
2022-08-26T07:21:05.097Z,100720.19
2022-08-26T07:23:35.608Z,100727.28
2022-08-26T07:26:12.125Z,100722.50
2022-08-26T07:28:42.013Z,100724.44
2022-08-26T07:31:13.852Z,100725.31
2022-08-26T07:33:45.183Z,100717.84
2022-08-26T07:36:18.819Z,100713.78
2022-08-26T07:38:49.209Z,100709.78
2022-08-26T07:44:00.320Z,100712.59
2022-08-26T07:46:30.851Z,100711.88
2022-08-26T07:49:01.460Z,100716.78
2022-08-26T07:51:31.836Z,100714.66
2022-08-26T07:54:01.697Z,100722.28
2022-08-26T07:56:36.402Z,100718.56
2022-08-26T07:59:13.616Z,100713.50
2022-08-26T08:01:44.775Z,100715.16
2022-08-26T08:04:17.272Z,100704.13
2022-08-26T08:06:48.236Z,100710.94
2022-08-26T08:09:18.470Z,100702.56
2022-08-26T08:11:52.623Z,100707.53
2022-08-26T08:14:23.116Z,100697.53
2022-08-26T08:16:54.983Z,100701.34
2022-08-26T08:19:29.915Z,100699.53
2022-08-26T08:22:18.029Z,100700.63
2022-08-26T08:24:50.162Z,100699.84
2022-08-26T08:27:25.772Z,100699.31
2022-08-26T08:29:57.286Z,100695.28
2022-08-26T08:32:29.591Z,100694.75
2022-08-26T08:35:00.414Z,100695.06
2022-08-26T08:37:30.492Z,100688.31
2022-08-26T08:40:04.164Z,100685.59
2022-08-26T08:42:44.352Z,100689.41
2022-08-26T08:45:18.478Z,100681.00
2022-08-26T08:47:54.027Z,100677.97
2022-08-26T08:50:29.919Z,100678.78
2022-08-26T08:53:10.759Z,100674.97
2022-08-26T08:56:00.987Z,100672.56
2022-08-26T08:58:49.851Z,100674.19
2022-08-26T09:01:30.513Z,100671.69
2022-08-26T09:04:27.248Z,100667.34
2022-08-26T09:07:01.393Z,100675.72
2022-08-26T09:09:38.954Z,100669.97
2022-08-26T09:12:15.757Z,100671.03
2022-08-26T09:14:49.759Z,100664.22
2022-08-26T09:17:32.867Z,100664.47
2022-08-26T09:20:13.212Z,100654.63
2022-08-26T09:22:44.387Z,100656.19
2022-08-26T09:25:16.850Z,100656.69
2022-08-26T09:27:51.508Z,100658.84
2022-08-26T09:30:28.558Z,100655.25
2022-08-26T09:33:03.853Z,100657.09
2022-08-26T09:35:42.966Z,100658.91
2022-08-26T09:38:26.709Z,100656.66
2022-08-26T09:41:02.294Z,100657.59
2022-08-26T09:43:35.529Z,100643.69
2022-08-26T09:46:18.488Z,100640.88
2022-08-26T09:48:48.621Z,100641.44
2022-08-26T09:51:34.433Z,100638.66
2022-08-26T09:54:08.186Z,100638.03
2022-08-26T09:56:40.230Z,100629.75
2022-08-26T09:59:13.645Z,100626.88
2022-08-26T10:01:47.224Z,100624.78
2022-08-26T10:04:24.921Z,100621.72
2022-08-26T10:07:02.172Z,100615.34
2022-08-26T10:09:35.715Z,100609.31
2022-08-26T10:12:09.483Z,100612.63
2022-08-26T10:14:47.203Z,100598.34
2022-08-26T10:17:30.904Z,100593.56
2022-08-26T10:20:06.308Z,100590.34
2022-08-26T10:22:57.966Z,100577.44
2022-08-26T10:25:31.876Z,100576.97
2022-08-26T10:28:12.276Z,100573.63
2022-08-26T10:30:47.498Z,100570.25
2022-08-26T10:33:20.083Z,100564.00
2022-08-26T10:35:55.608Z,100558.84
2022-08-26T10:38:30.522Z,100548.03
2022-08-26T10:41:09.696Z,100543.78
2022-08-26T10:43:45.281Z,100539.56
2022-08-26T10:46:19.308Z,100537.38
2022-08-26T10:48:59.908Z,100543.94
2022-08-26T10:51:38.564Z,100542.78
2022-08-26T10:54:14.056Z,100529.81
2022-08-26T10:56:51.339Z,100522.53
2022-08-26T10:59:31.296Z,100525.13
2022-08-26T11:02:10.205Z,100512.19
2022-08-26T11:04:49.206Z,100516.34
2022-08-26T11:07:38.016Z,100515.03
2022-08-26T11:10:12.330Z,100515.88
2022-08-26T11:12:54.310Z,100510.81
2022-08-26T11:16:10.172Z,100506.16
2022-08-26T11:18:46.332Z,100514.63
2022-08-26T11:21:49.547Z,100514.75
2022-08-26T11:24:46.603Z,100509.09
2022-08-26T11:27:46.947Z,100511.00
2022-08-26T11:30:57.003Z,100510.59
2022-08-26T11:34:02.572Z,100502.72
2022-08-26T11:36:43.586Z,100505.44
2022-08-26T11:39:21.898Z,100513.91
2022-08-26T11:42:00.045Z,100521.91
2022-08-26T11:44:40.612Z,100516.84
2022-08-26T11:47:28.830Z,100505.41
2022-08-26T11:50:11.129Z,100517.06
2022-08-26T11:52:41.575Z,100524.00
2022-08-26T11:55:14.415Z,100540.97
2022-08-26T11:57:50.342Z,100523.03
2022-08-26T12:00:22.981Z,100491.31
2022-08-26T12:02:55.687Z,100506.91
2022-08-26T12:05:31.129Z,100502.88
2022-08-26T12:08:11.619Z,100510.97
2022-08-26T12:10:41.974Z,100518.69
2022-08-26T12:13:23.987Z,100528.75
2022-08-26T12:15:59.018Z,100529.06
2022-08-26T12:18:37.400Z,100514.44
2022-08-26T12:21:16.019Z,100513.91
2022-08-26T12:23:49.882Z,100514.19
2022-08-26T12:26:26.790Z,100534.53
2022-08-26T12:29:10.002Z,100553.00
2022-08-26T12:31:47.912Z,100572.28
2022-08-26T12:34:19.781Z,100573.47
2022-08-26T12:36:51.760Z,100563.94
2022-08-26T12:39:29.699Z,100572.59
2022-08-26T12:42:01.277Z,100579.16
2022-08-26T12:44:53.816Z,100557.91
2022-08-26T12:47:41.784Z,100532.44
2022-08-26T12:50:21.642Z,100537.78
2022-08-26T12:52:59.023Z,100513.22
2022-08-26T12:55:38.438Z,100506.06
2022-08-26T12:58:33.659Z,100517.03
2022-08-26T13:01:25.070Z,100567.16
2022-08-26T13:03:55.023Z,100602.94
2022-08-26T13:06:31.692Z,100608.44
2022-08-26T13:09:05.136Z,100593.47
2022-08-26T13:11:37.872Z,100580.28
2022-08-26T13:14:11.202Z,100544.44
2022-08-26T13:16:44.250Z,100556.84
2022-08-26T13:19:16.287Z,100554.16
2022-08-26T13:21:49.666Z,100547.91
2022-08-26T13:24:24.392Z,100526.44
2022-08-26T13:26:54.891Z,100492.13
2022-08-26T13:29:25.461Z,100473.69
2022-08-26T13:31:58.864Z,100462.13
2022-08-26T13:34:29.731Z,100464.06
2022-08-26T13:37:00.549Z,100473.84
2022-08-26T13:39:31.074Z,100483.41
2022-08-26T13:42:01.833Z,100489.53
2022-08-26T13:44:31.824Z,100500.53
2022-08-26T13:47:04.732Z,100496.44
2022-08-26T13:49:34.681Z,100508.97
2022-08-26T13:52:05.130Z,100505.31
2022-08-26T13:54:35.136Z,100484.41
2022-08-26T13:57:06.064Z,100485.78
2022-08-26T13:59:35.973Z,100493.47
2022-08-26T14:02:10.104Z,100502.19
2022-08-26T14:04:40.123Z,100515.91
2022-08-26T14:07:10.368Z,100551.19
2022-08-26T14:09:40.659Z,100575.66
2022-08-26T14:12:11.170Z,100573.56
2022-08-26T14:14:41.394Z,100581.88
2022-08-26T14:17:16.811Z,100563.03
2022-08-26T14:19:49.450Z,100564.84
2022-08-26T14:22:21.257Z,100559.28
2022-08-26T14:24:51.783Z,100562.47
2022-08-26T14:27:21.711Z,100580.31
2022-08-26T14:29:51.656Z,100596.53
2022-08-26T14:32:28.749Z,100609.81
2022-08-26T14:34:59.008Z,100597.84
2022-08-26T14:37:29.230Z,100591.00
2022-08-26T14:39:59.173Z,100560.25
2022-08-26T14:42:32.508Z,100550.28
2022-08-26T14:45:06.704Z,100541.06
2022-08-26T14:47:39.125Z,100515.66
2022-08-26T14:50:12.653Z,100513.13
2022-08-26T14:52:55.893Z,100503.06
2022-08-26T14:55:26.102Z,100504.22
2022-08-26T14:57:56.069Z,100503.56
2022-08-26T15:00:26.033Z,100491.72
2022-08-26T15:02:59.540Z,100489.56
2022-08-26T15:05:29.577Z,100482.16
2022-08-26T15:08:00.493Z,100481.94
2022-08-26T15:10:30.359Z,100469.06
2022-08-26T15:13:01.167Z,100459.97
2022-08-26T15:15:31.342Z,100454.09
2022-08-26T15:18:04.165Z,100457.81
2022-08-26T15:20:34.197Z,100449.13
2022-08-26T15:23:06.579Z,100450.88
2022-08-26T15:25:36.598Z,100451.75
2022-08-26T15:28:07.132Z,100457.50
2022-08-26T15:30:37.044Z,100466.13
2022-08-26T15:33:15.062Z,100451.41
2022-08-26T15:35:45.992Z,100455.47
2022-08-26T15:38:16.145Z,100457.94
2022-08-26T15:40:46.271Z,100452.88
2022-08-26T15:43:28.848Z,100437.91
2022-08-26T15:46:01.180Z,100423.38
2022-08-26T15:48:33.963Z,100419.38
2022-08-26T15:51:04.443Z,100421.28
2022-08-26T15:53:36.297Z,100415.06
2022-08-26T15:56:06.913Z,100416.38
2022-08-26T15:58:38.177Z,100408.88
2022-08-26T16:01:08.729Z,100400.22
2022-08-26T16:03:41.995Z,100392.88
2022-08-26T16:06:16.308Z,100393.03
2022-08-26T16:08:46.518Z,100392.44
2022-08-26T16:11:18.788Z,100401.44
2022-08-26T16:13:49.808Z,100411.13
2022-08-26T16:16:21.541Z,100411.72
2022-08-26T16:18:55.138Z,100406.06
2022-08-26T16:21:28.625Z,100391.16
2022-08-26T16:23:59.578Z,100383.59
2022-08-26T16:26:37.578Z,100381.94
2022-08-26T16:29:10.237Z,100387.34
2022-08-26T16:31:40.694Z,100392.78
2022-08-26T16:34:13.609Z,100404.34
2022-08-26T16:36:43.812Z,100421.31
2022-08-26T16:39:16.643Z,100418.38
2022-08-26T16:41:46.965Z,100414.53
2022-08-26T16:44:16.843Z,100417.31
2022-08-26T16:46:47.380Z,100430.06
2022-08-26T16:49:20.466Z,100429.56
2022-08-26T16:51:53.354Z,100431.69
2022-08-26T16:54:23.261Z,100443.03
2022-08-26T16:56:53.409Z,100441.97
2022-08-26T16:59:23.496Z,100443.28
2022-08-26T17:01:53.770Z,100446.19
2022-08-26T17:04:27.037Z,100444.38
2022-08-26T17:06:57.191Z,100448.59
2022-08-26T17:09:27.619Z,100454.56
2022-08-26T17:11:57.993Z,100461.81
2022-08-26T17:14:28.332Z,100452.91
2022-08-26T17:16:58.270Z,100456.91
2022-08-26T17:19:30.977Z,100468.06
2022-08-26T17:22:10.081Z,100460.31
2022-08-26T17:24:40.879Z,100452.63
2022-08-26T17:27:11.503Z,100454.34
2022-08-26T17:29:41.361Z,100440.09
2022-08-26T17:32:11.213Z,100446.28
2022-08-26T17:34:44.682Z,100448.59
2022-08-26T17:37:14.722Z,100440.88
2022-08-26T17:39:45.205Z,100438.25
2022-08-26T17:42:15.220Z,100446.03
2022-08-26T17:44:48.369Z,100444.78
2022-08-26T17:47:19.073Z,100445.84
2022-08-26T17:49:51.718Z,100441.94
2022-08-26T17:52:22.706Z,100443.22
2022-08-26T17:54:55.811Z,100446.28
2022-08-26T17:57:26.590Z,100440.00
2022-08-26T17:59:56.934Z,100432.03
2022-08-26T18:02:34.349Z,100430.63
2022-08-26T18:05:07.395Z,100428.78
2022-08-26T18:07:44.142Z,100422.47
2022-08-26T18:10:16.484Z,100421.94
2022-08-26T18:12:47.050Z,100419.03
2022-08-26T18:15:19.112Z,100431.56
2022-08-26T18:17:49.504Z,100434.44
2022-08-26T18:20:22.923Z,100432.13
2022-08-26T18:22:53.386Z,100443.94
2022-08-26T18:25:23.442Z,100427.53
2022-08-26T18:27:53.546Z,100433.50
2022-08-26T18:30:24.716Z,100423.22
2022-08-26T18:32:55.398Z,100424.72
2022-08-26T18:35:30.004Z,100412.03
2022-08-26T18:38:10.391Z,100404.13
2022-08-26T18:40:43.255Z,100413.56
2022-08-26T18:43:15.186Z,100410.06
2022-08-26T18:45:45.837Z,100405.84
2022-08-26T18:48:18.470Z,100403.25
2022-08-26T18:50:55.060Z,100402.06
2022-08-26T18:53:25.331Z,100398.91
2022-08-26T18:55:57.425Z,100392.25
2022-08-26T18:58:28.649Z,100405.44
2022-08-26T19:00:59.086Z,100394.75
2022-08-26T19:03:29.411Z,100394.63
2022-08-26T19:06:02.697Z,100399.44
2022-08-26T19:08:32.891Z,100401.41
2022-08-26T19:11:03.819Z,100401.50
2022-08-26T19:13:37.664Z,100411.69
2022-08-26T19:16:08.176Z,100417.78
2022-08-26T19:18:38.733Z,100426.63
2022-08-26T19:21:11.643Z,100433.50
2022-08-26T19:23:42.075Z,100440.78
2022-08-26T19:26:13.091Z,100445.91
2022-08-26T19:28:43.987Z,100446.97
2022-08-26T19:31:15.701Z,100456.25
2022-08-26T19:33:46.814Z,100463.53
2022-08-26T19:36:23.529Z,100473.81
2022-08-26T19:38:54.241Z,100474.41
2022-08-26T19:41:36.783Z,100472.06
2022-08-26T19:44:13.609Z,100475.22
2022-08-26T19:46:44.159Z,100475.72
2022-08-26T19:49:14.192Z,100474.75
2022-08-26T19:51:50.041Z,100471.09
2022-08-26T19:54:22.639Z,100469.97
2022-08-26T19:56:52.933Z,100474.56
2022-08-26T19:59:22.831Z,100473.03
2022-08-26T20:02:01.039Z,100465.09
2022-08-26T20:04:32.390Z,100467.69
2022-08-26T20:07:06.272Z,100475.03
2022-08-26T20:09:37.943Z,100485.91
2022-08-26T20:12:09.712Z,100495.50
2022-08-26T20:14:40.159Z,100500.03
2022-08-26T20:17:10.546Z,100506.94
2022-08-26T20:19:53.271Z,100504.13
2022-08-26T20:22:26.358Z,100502.41
2022-08-26T20:24:59.035Z,100503.44
2022-08-26T20:27:37.804Z,100501.19
2022-08-26T20:30:10.350Z,100506.13
2022-08-26T20:32:41.128Z,100497.22
2022-08-26T20:35:14.479Z,100497.91
2022-08-26T20:37:47.658Z,100498.59
2022-08-26T20:40:18.003Z,100508.44
2022-08-26T20:42:48.193Z,100519.97
2022-08-26T20:45:18.135Z,100514.84
2022-08-26T20:47:48.380Z,100511.44
2022-08-26T20:50:18.972Z,100510.06
2022-08-26T20:52:51.359Z,100507.94
2022-08-26T20:55:21.797Z,100505.34
2022-08-26T20:57:52.022Z,100507.47
2022-08-26T21:00:26.456Z,100523.34
2022-08-26T21:02:57.026Z,100521.38
2022-08-26T21:05:27.333Z,100521.25
2022-08-26T21:07:59.829Z,100516.69
2022-08-26T21:10:31.569Z,100517.25
2022-08-26T21:13:02.773Z,100517.84
2022-08-26T21:15:33.025Z,100511.66
2022-08-26T21:18:03.556Z,100517.13
2022-08-26T21:20:33.954Z,100521.47
2022-08-26T21:23:08.120Z,100508.63
2022-08-26T21:25:38.010Z,100504.97
2022-08-26T21:28:08.391Z,100506.03
2022-08-26T21:30:40.890Z,100502.88
2022-08-26T21:33:11.721Z,100497.16
2022-08-26T21:35:41.788Z,100490.00
2022-08-26T21:38:14.580Z,100491.41
2022-08-26T21:40:44.534Z,100492.09
2022-08-26T21:43:34.844Z,100490.00
2022-08-26T21:46:11.475Z,100497.00
2022-08-26T21:48:44.254Z,100487.16
2022-08-26T21:51:17.858Z,100490.22
2022-08-26T21:53:52.978Z,100486.69
2022-08-26T21:56:24.987Z,100495.00
2022-08-26T21:58:55.916Z,100510.56
2022-08-26T22:01:27.867Z,100506.13
2022-08-26T22:04:03.201Z,100516.78
2022-08-26T22:06:35.020Z,100503.38
2022-08-26T22:09:07.987Z,100493.56
2022-08-26T22:11:40.731Z,100492.03
2022-08-26T22:14:13.048Z,100482.13
2022-08-26T22:16:50.137Z,100477.81
2022-08-26T22:19:23.488Z,100478.53
2022-08-26T22:21:55.279Z,100484.94
2022-08-26T22:24:29.588Z,100473.03
2022-08-26T22:27:00.761Z,100455.66
2022-08-26T22:29:32.365Z,100448.38
2022-08-26T22:32:02.864Z,100441.06
2022-08-26T22:34:33.440Z,100432.38
2022-08-26T22:37:03.631Z,100437.16
2022-08-26T22:39:36.261Z,100429.69
2022-08-26T22:42:07.502Z,100417.31
2022-08-26T22:44:41.289Z,100412.09
2022-08-26T22:47:14.086Z,100409.41
2022-08-26T22:49:44.052Z,100401.22
2022-08-26T22:52:16.947Z,100398.06
2022-08-26T22:54:50.971Z,100399.56
2022-08-26T22:57:25.141Z,100391.88
2022-08-26T22:59:55.628Z,100395.41
2022-08-26T23:02:26.187Z,100400.75
2022-08-26T23:04:56.579Z,100404.13
2022-08-26T23:07:27.217Z,100417.31
2022-08-26T23:10:00.170Z,100422.66
2022-08-26T23:12:31.635Z,100424.31
2022-08-26T23:15:03.905Z,100425.59
2022-08-26T23:17:35.524Z,100422.84
2022-08-26T23:20:07.640Z,100423.06
2022-08-26T23:22:39.923Z,100420.94
2022-08-26T23:25:18.075Z,100419.19
2022-08-26T23:28:06.838Z,100424.78
2022-08-26T23:31:17.473Z,100432.13
2022-08-26T23:34:19.451Z,100447.34
2022-08-26T23:36:58.565Z,100445.56
2022-08-26T23:39:36.980Z,100442.53
2022-08-26T23:42:14.871Z,100448.88
2022-08-26T23:44:45.837Z,100447.13
2022-08-26T23:47:16.865Z,100442.31
2022-08-26T23:49:47.256Z,100437.84
2022-08-26T23:52:30.187Z,100438.81
2022-08-26T23:55:08.793Z,100449.56
2022-08-26T23:57:46.431Z,100447.59
